createdAt,value
2018-07-16T00:00:14.610Z,3.77
2018-07-16T00:02:42.953Z,4.50
2018-07-16T00:05:11.434Z,4.23
2018-07-16T00:07:39.751Z,4.40
2018-07-16T00:10:08.079Z,4.03
2018-07-16T00:12:36.360Z,4.47
2018-07-16T00:15:04.775Z,4.20
2018-07-16T00:17:33.269Z,3.83
2018-07-16T00:20:01.693Z,3.97
2018-07-16T00:22:29.977Z,4.33
2018-07-16T00:24:58.150Z,4.00
2018-07-16T00:27:26.406Z,3.93
2018-07-16T00:29:54.734Z,4.27
2018-07-16T00:32:23.077Z,3.90
2018-07-16T00:34:51.364Z,3.83
2018-07-16T00:37:19.608Z,4.20
2018-07-16T00:39:47.902Z,3.83
2018-07-16T00:42:16.218Z,4.37
2018-07-16T00:44:44.456Z,4.00
2018-07-16T00:47:12.285Z,3.87
2018-07-16T00:49:40.725Z,3.80
2018-07-16T00:52:09.077Z,3.83
2018-07-16T00:54:37.354Z,4.00
2018-07-16T00:57:05.875Z,3.83
2018-07-16T00:59:34.309Z,3.83
2018-07-16T01:02:02.703Z,4.13
2018-07-16T01:04:31.005Z,4.40
2018-07-16T01:06:59.346Z,3.93
2018-07-16T01:09:27.613Z,4.40
2018-07-16T01:11:55.932Z,3.90
2018-07-16T01:14:24.156Z,4.20
2018-07-16T01:16:52.650Z,3.73
2018-07-16T01:19:21.035Z,4.40
2018-07-16T01:21:49.547Z,3.83
2018-07-16T01:24:17.680Z,4.60
2018-07-16T01:26:46.067Z,4.53
2018-07-16T01:29:14.477Z,4.50
2018-07-16T01:31:42.812Z,4.13
2018-07-16T01:34:11.086Z,4.53
2018-07-16T01:36:39.421Z,4.20
2018-07-16T01:39:07.861Z,4.40
2018-07-16T01:41:36.025Z,4.40
2018-07-16T01:44:04.327Z,5.00
2018-07-16T01:46:32.466Z,4.37
2018-07-16T01:49:00.504Z,4.43
2018-07-16T01:51:28.746Z,4.27
2018-07-16T01:53:56.861Z,4.40
2018-07-16T01:56:24.935Z,4.70
2018-07-16T01:58:53.373Z,4.47
2018-07-16T02:01:21.817Z,4.50
2018-07-16T02:03:50.232Z,4.40
2018-07-16T02:06:18.475Z,4.20
2018-07-16T02:08:46.738Z,4.83
2018-07-16T02:11:15.174Z,4.60
2018-07-16T02:13:43.490Z,4.37
2018-07-16T02:16:11.873Z,4.47
2018-07-16T02:18:40.149Z,4.70
2018-07-16T02:21:08.321Z,5.13
2018-07-16T02:23:36.742Z,5.30
2018-07-16T02:26:05.018Z,5.33
2018-07-16T02:28:33.354Z,5.57
2018-07-16T02:31:01.567Z,5.33
2018-07-16T02:33:29.904Z,5.30
2018-07-16T02:35:58.086Z,5.90
2018-07-16T02:38:26.396Z,5.30
2018-07-16T02:40:54.631Z,5.33
2018-07-16T02:43:22.909Z,5.43
2018-07-16T02:45:51.316Z,5.23
2018-07-16T02:48:19.548Z,5.33
2018-07-16T02:50:47.390Z,5.10
2018-07-16T02:53:15.606Z,5.33
2018-07-16T02:55:44.115Z,5.40
2018-07-16T02:58:11.961Z,5.30
2018-07-16T03:00:40.218Z,5.23
2018-07-16T03:03:08.532Z,5.60
2018-07-16T03:05:36.875Z,5.80
2018-07-16T03:08:05.255Z,5.23
2018-07-16T03:10:33.474Z,5.47
2018-07-16T03:13:01.709Z,5.60
2018-07-16T03:15:29.970Z,5.27
2018-07-16T03:17:58.339Z,5.57
2018-07-16T03:20:26.769Z,5.03
2018-07-16T03:22:55.110Z,5.10
2018-07-16T03:25:23.382Z,6.50
2018-07-16T03:27:52.325Z,5.30
2018-07-16T03:30:20.521Z,5.90
2018-07-16T03:32:48.821Z,5.60
2018-07-16T03:35:17.143Z,5.80
2018-07-16T03:37:45.509Z,5.77
2018-07-16T03:40:13.853Z,5.73
2018-07-16T03:42:42.372Z,5.37
2018-07-16T03:45:10.816Z,6.20
2018-07-16T03:47:39.080Z,6.20
2018-07-16T03:50:07.460Z,5.77
2018-07-16T03:52:35.754Z,5.70
2018-07-16T03:55:04.116Z,5.70
2018-07-16T03:57:32.294Z,5.50
2018-07-16T04:00:00.565Z,6.13
2018-07-16T04:02:29.081Z,5.87
2018-07-16T04:04:57.437Z,6.20
2018-07-16T04:07:25.714Z,6.03
2018-07-16T04:09:54.086Z,6.03
2018-07-16T04:12:22.470Z,6.10
2018-07-16T04:14:50.751Z,9.27
2018-07-16T04:17:19.303Z,6.80
2018-07-16T04:19:47.585Z,6.93
2018-07-16T04:22:15.875Z,6.80
2018-07-16T04:24:44.056Z,6.53
2018-07-16T04:27:12.413Z,6.87
2018-07-16T04:29:40.701Z,6.63
2018-07-16T04:32:08.983Z,6.27
2018-07-16T04:34:37.254Z,6.43
2018-07-16T04:37:05.079Z,6.23
2018-07-16T04:39:33.280Z,6.70
2018-07-16T04:42:01.449Z,6.27
2018-07-16T04:44:29.318Z,5.90
2018-07-16T04:46:57.594Z,6.70
2018-07-16T04:49:25.766Z,6.40
2018-07-16T04:51:53.801Z,5.57
2018-07-16T04:54:22.017Z,6.10
2018-07-16T04:56:50.191Z,5.93
2018-07-16T04:59:18.136Z,6.07
2018-07-16T05:01:46.425Z,6.40
2018-07-16T05:04:14.710Z,6.57
2018-07-16T05:06:42.729Z,5.87
2018-07-16T05:09:10.923Z,5.93
2018-07-16T05:11:39.125Z,6.10
2018-07-16T05:14:07.403Z,6.40
2018-07-16T05:16:35.669Z,5.93
2018-07-16T05:19:04.050Z,6.27
2018-07-16T05:21:32.329Z,6.00
2018-07-16T05:24:00.632Z,6.17
2018-07-16T05:26:28.872Z,6.47
2018-07-16T05:28:57.253Z,6.47
2018-07-16T05:31:25.633Z,5.40
2018-07-16T05:33:53.905Z,5.87
2018-07-16T05:36:22.190Z,5.90
2018-07-16T05:38:50.672Z,6.37
2018-07-16T05:41:18.938Z,6.03
2018-07-16T05:43:47.210Z,5.60
2018-07-16T05:46:15.598Z,5.93
2018-07-16T05:48:43.873Z,5.73
2018-07-16T05:51:12.141Z,6.53
2018-07-16T05:53:39.973Z,6.10
2018-07-16T05:56:08.181Z,6.20
2018-07-16T05:58:36.444Z,5.70
2018-07-16T06:01:04.737Z,6.30
2018-07-16T06:03:33.006Z,6.17
2018-07-16T06:06:01.605Z,6.50
2018-07-16T06:08:29.878Z,5.70
2018-07-16T06:10:58.233Z,6.27
2018-07-16T06:13:26.526Z,6.70
2018-07-16T06:15:54.805Z,6.27
2018-07-16T06:18:23.075Z,6.73
2018-07-16T06:20:51.461Z,6.50
2018-07-16T06:23:19.730Z,7.00
2018-07-16T06:25:48.114Z,7.17
2018-07-16T06:28:16.486Z,7.07
2018-07-16T06:30:44.853Z,6.70
2018-07-16T06:33:13.146Z,6.83
2018-07-16T06:35:41.418Z,6.27
2018-07-16T06:38:09.886Z,6.60
2018-07-16T06:40:38.496Z,6.27
2018-07-16T06:43:06.749Z,6.90
2018-07-16T06:45:35.027Z,6.80
2018-07-16T06:48:03.294Z,6.73
2018-07-16T06:50:32.435Z,6.80
2018-07-16T06:53:00.814Z,6.77
2018-07-16T06:55:29.059Z,6.77
2018-07-16T06:57:57.421Z,6.37
2018-07-16T07:00:25.660Z,6.70
2018-07-16T07:02:53.474Z,6.97
2018-07-16T07:05:21.741Z,7.53
2018-07-16T07:07:49.906Z,6.87
2018-07-16T07:10:18.100Z,7.80
2018-07-16T07:12:46.474Z,7.20
2018-07-16T07:15:14.937Z,6.67
2018-07-16T07:17:43.360Z,7.40
2018-07-16T07:20:11.627Z,6.93
2018-07-16T07:22:39.982Z,7.60
2018-07-16T07:25:08.039Z,6.10
2018-07-16T07:27:36.519Z,7.03
2018-07-16T07:30:05.001Z,16.50
2018-07-16T07:32:33.277Z,8.10
2018-07-16T07:35:01.831Z,8.23
2018-07-16T07:37:30.038Z,7.27
2018-07-16T07:39:58.418Z,6.63
2018-07-16T07:42:26.794Z,7.10
2018-07-16T07:44:55.325Z,6.53
2018-07-16T07:47:23.450Z,6.33
2018-07-16T07:49:51.825Z,6.97
2018-07-16T07:52:20.097Z,5.93
2018-07-16T07:54:48.549Z,6.57
2018-07-16T07:57:16.751Z,7.33
2018-07-16T07:59:44.934Z,7.67
2018-07-16T08:02:13.306Z,8.20
2018-07-16T08:04:41.682Z,6.87
2018-07-16T08:07:10.779Z,7.03
2018-07-16T08:09:39.163Z,6.33
2018-07-16T08:12:09.030Z,6.73
2018-07-16T08:14:37.450Z,6.27
2018-07-16T08:17:05.906Z,6.90
2018-07-16T08:19:34.317Z,6.00
2018-07-16T08:22:02.758Z,5.53
2018-07-16T08:24:31.373Z,5.80
2018-07-16T08:26:59.846Z,5.77
2018-07-16T08:29:28.126Z,5.67
2018-07-16T08:31:56.506Z,6.00
2018-07-16T08:34:24.765Z,5.83
2018-07-16T08:36:53.046Z,5.80
2018-07-16T08:39:21.340Z,5.87
2018-07-16T08:41:49.610Z,5.30
2018-07-16T08:44:17.999Z,5.30
2018-07-16T08:46:46.358Z,7.80
2018-07-16T08:49:14.622Z,6.60
2018-07-16T08:51:42.785Z,6.10
2018-07-16T08:54:11.085Z,9.00
2018-07-16T08:56:39.378Z,7.20
2018-07-16T08:59:07.893Z,7.40
2018-07-16T09:01:36.014Z,7.37
2018-07-16T09:04:04.388Z,6.00
2018-07-16T09:06:32.770Z,5.80
2018-07-16T09:09:01.147Z,5.67
2018-07-16T09:11:29.626Z,5.80
2018-07-16T09:13:57.896Z,5.90
2018-07-16T09:16:26.277Z,6.00
2018-07-16T09:18:54.546Z,5.77
2018-07-16T09:21:22.836Z,5.80
2018-07-16T09:23:51.098Z,6.23
2018-07-16T09:26:19.420Z,6.27
2018-07-16T09:28:47.841Z,7.17
2018-07-16T09:31:16.048Z,6.30
2018-07-16T09:33:44.316Z,6.73
2018-07-16T09:36:12.677Z,5.47
2018-07-16T09:38:41.057Z,5.70
2018-07-16T09:41:09.162Z,5.70
2018-07-16T09:43:37.429Z,5.43
2018-07-16T09:46:05.806Z,5.77
2018-07-16T09:48:33.648Z,6.00
2018-07-16T09:51:01.930Z,5.60
2018-07-16T09:53:29.758Z,7.70
2018-07-16T09:55:57.978Z,5.90
2018-07-16T09:58:26.242Z,5.47
2018-07-16T10:00:59.783Z,5.70
2018-07-16T10:03:28.018Z,6.03
2018-07-16T10:05:56.398Z,6.70
2018-07-16T10:08:24.735Z,5.80
2018-07-16T10:10:52.938Z,5.37
2018-07-16T10:13:21.214Z,5.40
2018-07-16T10:15:49.512Z,5.73
2018-07-16T10:18:17.762Z,5.63
2018-07-16T10:20:46.041Z,5.43
2018-07-16T10:23:14.326Z,5.90
2018-07-16T10:25:42.839Z,5.27
2018-07-16T10:28:11.333Z,5.40
2018-07-16T10:30:39.594Z,5.40
2018-07-16T10:33:07.847Z,5.40
2018-07-16T10:35:36.113Z,5.00
2018-07-16T10:38:04.491Z,5.43
2018-07-16T10:40:32.894Z,5.30
2018-07-16T10:43:00.758Z,5.37
2018-07-16T10:45:29.002Z,5.27
2018-07-16T10:47:57.406Z,5.03
2018-07-16T10:50:25.767Z,5.30
2018-07-16T10:52:54.042Z,4.90
2018-07-16T10:55:22.489Z,5.40
2018-07-16T10:57:50.704Z,5.23
2018-07-16T11:00:19.057Z,4.80
2018-07-16T11:02:47.366Z,5.60
2018-07-16T11:05:15.662Z,4.77
2018-07-16T11:07:43.993Z,4.80
2018-07-16T11:10:12.281Z,4.77
2018-07-16T11:12:40.554Z,4.90
2018-07-16T11:15:08.910Z,5.07
2018-07-16T11:17:37.202Z,5.40
2018-07-16T11:20:07.437Z,5.33
2018-07-16T11:22:35.806Z,4.70
2018-07-16T11:25:04.221Z,5.13
2018-07-16T11:27:32.549Z,4.77
2018-07-16T11:30:00.795Z,4.03
2018-07-16T11:32:28.997Z,4.73
2018-07-16T11:34:57.173Z,4.60
2018-07-16T11:37:25.559Z,5.10
2018-07-16T11:39:53.934Z,5.03
2018-07-16T11:42:22.303Z,4.20
2018-07-16T11:44:50.690Z,4.67
2018-07-16T11:47:19.084Z,5.07
2018-07-16T11:49:47.342Z,4.27
2018-07-16T11:52:15.889Z,4.80
2018-07-16T11:54:44.306Z,4.80
2018-07-16T11:57:12.579Z,4.40
2018-07-16T11:59:40.891Z,4.53
2018-07-16T12:02:09.024Z,4.80
2018-07-16T12:04:37.200Z,5.03
2018-07-16T12:07:05.103Z,4.70
2018-07-16T12:09:33.334Z,4.40
2018-07-16T12:12:01.620Z,4.90
2018-07-16T12:14:29.678Z,4.77
2018-07-16T12:16:58.073Z,4.80
2018-07-16T12:19:26.242Z,4.60
2018-07-16T12:21:54.930Z,4.60
2018-07-16T12:24:23.314Z,4.60
2018-07-16T12:26:51.681Z,4.73
2018-07-16T12:29:19.960Z,5.43
2018-07-16T12:31:48.234Z,4.83
2018-07-16T12:34:16.504Z,4.50
2018-07-16T12:36:44.781Z,4.73
2018-07-16T12:39:12.979Z,4.40
2018-07-16T12:41:41.249Z,4.43
2018-07-16T12:44:09.593Z,4.37
2018-07-16T12:46:37.569Z,4.87
2018-07-16T12:49:05.950Z,4.20
2018-07-16T12:51:34.133Z,4.30
2018-07-16T12:54:02.273Z,4.27
2018-07-16T12:56:30.690Z,4.30
2018-07-16T12:58:59.042Z,4.57
2018-07-16T13:01:27.537Z,4.50
2018-07-16T13:03:55.822Z,4.07
2018-07-16T13:06:24.091Z,4.07
2018-07-16T13:08:53.453Z,4.27
2018-07-16T13:11:21.753Z,4.20
2018-07-16T13:13:50.450Z,4.27
2018-07-16T13:16:18.933Z,4.47
2018-07-16T13:18:47.215Z,4.20
2018-07-16T13:21:15.593Z,4.20
2018-07-16T13:23:43.960Z,3.90
2018-07-16T13:26:12.442Z,4.23
2018-07-16T13:28:40.718Z,3.70
2018-07-16T13:31:09.087Z,4.30
2018-07-16T13:33:37.361Z,4.17
2018-07-16T13:36:05.657Z,4.30
2018-07-16T13:38:34.031Z,4.30
2018-07-16T13:41:02.301Z,3.93
2018-07-16T13:43:30.783Z,4.20
2018-07-16T13:45:58.947Z,4.30
2018-07-16T13:48:27.331Z,4.43
2018-07-16T13:50:55.506Z,5.10
2018-07-16T13:53:24.090Z,4.47
2018-07-16T13:55:52.353Z,4.60
2018-07-16T13:58:20.638Z,3.87
2018-07-16T14:00:48.802Z,5.40
2018-07-16T14:03:17.094Z,3.87
2018-07-16T14:05:45.453Z,3.33
2018-07-16T14:08:13.735Z,4.00
2018-07-16T14:10:41.908Z,3.97
2018-07-16T14:13:10.180Z,4.23
2018-07-16T14:15:38.558Z,4.50
2018-07-16T14:18:06.507Z,3.80
2018-07-16T14:20:34.892Z,3.80
2018-07-16T14:23:03.385Z,3.63
2018-07-16T14:25:31.229Z,3.70
2018-07-16T14:27:59.637Z,3.77
2018-07-16T14:30:27.802Z,3.77
2018-07-16T14:32:56.290Z,4.00
2018-07-16T14:35:24.458Z,3.80
2018-07-16T14:37:52.833Z,4.00
2018-07-16T14:40:21.126Z,4.00
2018-07-16T14:42:49.490Z,3.33
2018-07-16T14:45:17.670Z,3.80
2018-07-16T14:47:45.943Z,4.03
2018-07-16T14:50:14.293Z,4.40
2018-07-16T14:52:42.481Z,5.90
2018-07-16T14:55:10.762Z,4.13
2018-07-16T14:57:39.254Z,3.67
2018-07-16T15:00:07.517Z,6.27
2018-07-16T15:02:36.014Z,6.00
2018-07-16T15:05:04.374Z,4.03
2018-07-16T15:07:32.553Z,4.10
2018-07-16T15:10:00.827Z,4.40
2018-07-16T15:12:29.212Z,4.30
2018-07-16T15:14:57.486Z,4.83
2018-07-16T15:17:25.662Z,4.33
2018-07-16T15:19:54.073Z,4.03
2018-07-16T15:22:22.274Z,3.80
2018-07-16T15:24:50.511Z,4.10
2018-07-16T15:27:18.907Z,4.30
2018-07-16T15:29:47.214Z,3.93
2018-07-16T15:32:15.497Z,3.83
2018-07-16T15:34:43.690Z,4.03
2018-07-16T15:37:12.077Z,3.40
2018-07-16T15:39:40.342Z,3.13
2018-07-16T15:42:08.214Z,3.37
2018-07-16T15:44:36.501Z,3.40
2018-07-16T15:47:04.952Z,3.30
2018-07-16T15:49:32.804Z,3.80
2018-07-16T15:52:01.130Z,3.33
2018-07-16T15:54:29.474Z,3.30
2018-07-16T15:56:57.750Z,3.47
2018-07-16T15:59:26.193Z,3.60
2018-07-16T16:01:54.402Z,3.60
2018-07-16T16:04:22.690Z,3.40
2018-07-16T16:06:51.060Z,3.33
2018-07-16T16:09:19.429Z,3.37
2018-07-16T16:11:47.743Z,3.50
2018-07-16T16:14:15.990Z,3.60
2018-07-16T16:16:44.361Z,3.83
2018-07-16T16:19:12.670Z,3.57
2018-07-16T16:21:41.153Z,3.43
2018-07-16T16:24:09.426Z,3.60
2018-07-16T16:26:37.872Z,3.30
2018-07-16T16:29:06.350Z,3.57
2018-07-16T16:31:34.775Z,4.17
2018-07-16T16:34:03.246Z,3.73
2018-07-16T16:36:31.567Z,4.27
2018-07-16T16:38:59.910Z,3.80
2018-07-16T16:41:28.142Z,3.67
2018-07-16T16:43:56.521Z,3.87
2018-07-16T16:46:24.829Z,5.20
2018-07-16T16:48:53.078Z,4.17
2018-07-16T16:51:21.354Z,4.30
2018-07-16T16:53:49.721Z,3.93
2018-07-16T16:56:18.102Z,4.60
2018-07-16T16:58:46.557Z,4.50
2018-07-16T17:01:14.767Z,5.13
2018-07-16T17:03:42.944Z,3.53
2018-07-16T17:06:10.842Z,4.23
2018-07-16T17:08:39.277Z,3.87
2018-07-16T17:11:07.748Z,3.80
2018-07-16T17:13:35.597Z,4.00
2018-07-16T17:16:03.892Z,3.83
2018-07-16T17:18:32.393Z,4.10
2018-07-16T17:21:00.337Z,4.43
2018-07-16T17:23:28.613Z,4.60
2018-07-16T17:25:57.032Z,4.23
2018-07-16T17:28:25.170Z,6.00
2018-07-16T17:30:53.658Z,7.03
2018-07-16T17:33:22.069Z,5.27
2018-07-16T17:35:49.901Z,4.30
2018-07-16T17:38:18.178Z,4.50
2018-07-16T17:40:46.471Z,4.47
2018-07-16T17:43:14.726Z,4.60
2018-07-16T17:45:43.179Z,5.10
2018-07-16T17:48:11.421Z,4.50
2018-07-16T17:50:39.652Z,4.70
2018-07-16T17:53:08.042Z,4.83
2018-07-16T17:55:36.542Z,5.07
2018-07-16T17:58:04.894Z,4.90
2018-07-16T18:00:33.281Z,5.40
2018-07-16T18:03:01.603Z,5.20
2018-07-16T18:05:30.020Z,5.63
2018-07-16T18:07:58.445Z,6.40
2018-07-16T18:10:26.714Z,5.77
2018-07-16T18:12:55.049Z,6.23
2018-07-16T18:15:23.325Z,5.73
2018-07-16T18:17:51.611Z,5.60
2018-07-16T18:20:20.081Z,5.43
2018-07-16T18:22:48.358Z,5.70
2018-07-16T18:25:16.870Z,5.60
2018-07-16T18:27:45.090Z,5.73
2018-07-16T18:30:13.424Z,5.00
2018-07-16T18:32:41.697Z,5.60
2018-07-16T18:35:10.137Z,5.73
2018-07-16T18:37:38.412Z,5.80
2018-07-16T18:40:06.809Z,5.03
2018-07-16T18:42:35.074Z,5.53
2018-07-16T18:45:03.105Z,5.27
2018-07-16T18:47:31.321Z,5.03
2018-07-16T18:49:59.693Z,4.73
2018-07-16T18:52:27.754Z,5.33
2018-07-16T18:54:56.038Z,4.80
2018-07-16T18:57:24.313Z,4.63
2018-07-16T18:59:52.627Z,4.93
2018-07-16T19:02:20.982Z,5.10
2018-07-16T19:04:49.254Z,4.43
2018-07-16T19:07:21.257Z,4.77
2018-07-16T19:09:49.666Z,4.20
2018-07-16T19:12:17.974Z,4.30
2018-07-16T19:14:46.330Z,4.80
2018-07-16T19:17:14.718Z,4.87
2018-07-16T19:19:43.089Z,5.03
2018-07-16T19:22:11.417Z,4.20
2018-07-16T19:24:39.656Z,4.30
2018-07-16T19:27:07.904Z,4.70
2018-07-16T19:29:36.353Z,4.60
2018-07-16T19:32:04.668Z,4.80
2018-07-16T19:34:33.054Z,4.80
2018-07-16T19:37:02.061Z,5.30
2018-07-16T19:39:30.331Z,4.83
2018-07-16T19:41:58.710Z,4.63
2018-07-16T19:44:27.095Z,4.93
2018-07-16T19:46:55.346Z,5.27
2018-07-16T19:49:23.677Z,5.13
2018-07-16T19:51:51.905Z,5.00
2018-07-16T19:54:20.191Z,4.93
2018-07-16T19:56:48.609Z,5.70
2018-07-16T19:59:16.937Z,5.50
2018-07-16T20:01:45.413Z,6.00
2018-07-16T20:04:13.804Z,6.50
2018-07-16T20:06:42.174Z,6.27
2018-07-16T20:09:10.032Z,6.10
2018-07-16T20:11:38.450Z,6.63
2018-07-16T20:14:06.803Z,6.30
2018-07-16T20:16:39.553Z,6.53
2018-07-16T20:19:08.047Z,6.27
2018-07-16T20:21:36.468Z,6.70
2018-07-16T20:24:04.541Z,6.20
2018-07-16T20:26:32.981Z,5.97
2018-07-16T20:29:01.258Z,6.43
2018-07-16T20:31:29.549Z,6.90
2018-07-16T20:33:57.844Z,6.33
2018-07-16T20:36:26.071Z,6.57
2018-07-16T20:38:54.472Z,5.80
2018-07-16T20:41:22.923Z,6.60
2018-07-16T20:43:51.358Z,6.63
2018-07-16T20:46:19.699Z,6.50
2018-07-16T20:48:48.182Z,6.20
2018-07-16T20:51:16.481Z,5.80
2018-07-16T20:53:44.833Z,5.80
2018-07-16T20:56:13.105Z,5.80
2018-07-16T20:58:41.635Z,4.77
2018-07-16T21:01:09.774Z,5.53
2018-07-16T21:03:38.137Z,5.73
2018-07-16T21:06:06.442Z,5.13
2018-07-16T21:08:34.894Z,5.47
2018-07-16T21:11:03.180Z,5.23
2018-07-16T21:13:31.512Z,5.60
2018-07-16T21:15:59.821Z,5.87
2018-07-16T21:18:28.106Z,5.80
2018-07-16T21:20:56.618Z,5.37
2018-07-16T21:23:24.725Z,5.57
2018-07-16T21:25:53.030Z,5.33
2018-07-16T21:28:21.440Z,5.80
2018-07-16T21:30:49.894Z,7.07
2018-07-16T21:33:18.175Z,7.10
2018-07-16T21:35:46.485Z,6.50
2018-07-16T21:38:14.827Z,6.47
2018-07-16T21:40:43.208Z,6.73
2018-07-16T21:43:11.610Z,6.53
2018-07-16T21:45:39.733Z,5.70
2018-07-16T21:48:07.822Z,6.87
2018-07-16T21:50:36.258Z,6.90
2018-07-16T21:53:04.663Z,7.80
2018-07-16T21:55:32.535Z,8.00
2018-07-16T21:58:00.794Z,7.43
2018-07-16T22:00:30.870Z,7.63
2018-07-16T22:03:00.036Z,7.23
2018-07-16T22:05:28.721Z,7.97
2018-07-16T22:07:58.004Z,6.60
2018-07-16T22:10:26.454Z,7.00
2018-07-16T22:12:55.533Z,6.60
2018-07-16T22:15:25.393Z,6.07
2018-07-16T22:17:54.457Z,6.33
2018-07-16T22:20:23.730Z,6.50
2018-07-16T22:22:52.113Z,5.77
2018-07-16T22:25:20.073Z,6.13
2018-07-16T22:27:48.412Z,5.57
2018-07-16T22:30:16.825Z,5.50
2018-07-16T22:32:45.165Z,5.57
2018-07-16T22:35:13.537Z,4.90
2018-07-16T22:37:41.876Z,5.33
2018-07-16T22:40:10.195Z,5.37
2018-07-16T22:42:38.573Z,5.27
2018-07-16T22:45:07.705Z,4.67
2018-07-16T22:47:36.050Z,5.33
2018-07-16T22:50:04.529Z,5.30
2018-07-16T22:52:32.943Z,5.47
2018-07-16T22:55:01.191Z,5.43
2018-07-16T22:57:29.468Z,5.53
2018-07-16T22:59:57.777Z,5.70
2018-07-16T23:02:26.117Z,5.67
2018-07-16T23:04:54.496Z,5.57
2018-07-16T23:07:23.006Z,5.83
2018-07-16T23:09:51.262Z,5.80
2018-07-16T23:12:19.627Z,5.87
2018-07-16T23:14:47.830Z,5.57
2018-07-16T23:17:16.386Z,5.87
2018-07-16T23:19:44.654Z,6.00
2018-07-16T23:22:12.965Z,5.93
2018-07-16T23:24:41.305Z,6.30
2018-07-16T23:27:09.576Z,5.37
2018-07-16T23:29:37.995Z,5.77
2018-07-16T23:32:07.157Z,5.90
2018-07-16T23:34:35.423Z,5.97
2018-07-16T23:37:03.948Z,5.87
2018-07-16T23:39:32.181Z,5.80
2018-07-16T23:42:00.358Z,5.97
2018-07-16T23:44:28.646Z,6.60
2018-07-16T23:46:57.018Z,6.07
2018-07-16T23:49:24.990Z,6.37
2018-07-16T23:51:53.278Z,6.20
2018-07-16T23:54:21.538Z,6.10
2018-07-16T23:56:49.734Z,6.10
2018-07-16T23:59:17.982Z,6.20
